sensor_id;sensor_type;location;lat;lon;timestamp;pressure;altitude;pressure_sealevel;temperature
34807;BMP180;18310;55.586;12.286;2022-11-20T00:02:30;101092.00;;;10.40
34807;BMP180;18310;55.586;12.286;2022-11-20T00:05:34;101086.00;;;10.40
34807;BMP180;18310;55.586;12.286;2022-11-20T00:08:37;101084.00;;;10.30
34807;BMP180;18310;55.586;12.286;2022-11-20T00:11:43;101085.00;;;10.30
34807;BMP180;18310;55.586;12.286;2022-11-20T00:14:46;101095.00;;;10.20
34807;BMP180;18310;55.586;12.286;2022-11-20T00:17:50;101094.00;;;10.20
34807;BMP180;18310;55.586;12.286;2022-11-20T00:21:00;101088.00;;;10.20
34807;BMP180;18310;55.586;12.286;2022-11-20T00:24:04;101094.00;;;10.10
34807;BMP180;18310;55.586;12.286;2022-11-20T00:27:09;101100.00;;;10.10
34807;BMP180;18310;55.586;12.286;2022-11-20T00:33:16;101083.00;;;10.10
34807;BMP180;18310;55.586;12.286;2022-11-20T00:36:22;101088.00;;;10.10
34807;BMP180;18310;55.586;12.286;2022-11-20T00:39:28;101103.00;;;10.10
34807;BMP180;18310;55.586;12.286;2022-11-20T00:42:33;101086.00;;;10.10
34807;BMP180;18310;55.586;12.286;2022-11-20T00:45:36;101102.00;;;10.10
34807;BMP180;18310;55.586;12.286;2022-11-20T00:48:40;101107.00;;;10.10
34807;BMP180;18310;55.586;12.286;2022-11-20T00:51:43;101102.00;;;10.20
34807;BMP180;18310;55.586;12.286;2022-11-20T00:54:47;101099.00;;;10.20
34807;BMP180;18310;55.586;12.286;2022-11-20T00:57:52;101099.00;;;10.10
34807;BMP180;18310;55.586;12.286;2022-11-20T01:01:00;101096.00;;;10.10
34807;BMP180;18310;55.586;12.286;2022-11-20T01:04:03;101093.00;;;10.10
34807;BMP180;18310;55.586;12.286;2022-11-20T01:07:07;101099.00;;;10.10
34807;BMP180;18310;55.586;12.286;2022-11-20T01:10:11;101113.00;;;10.10
34807;BMP180;18310;55.586;12.286;2022-11-20T01:13:16;101109.00;;;10.10
34807;BMP180;18310;55.586;12.286;2022-11-20T01:16:39;101110.00;;;10.00
34807;BMP180;18310;55.586;12.286;2022-11-20T01:19:43;101114.00;;;10.00
34807;BMP180;18310;55.586;12.286;2022-11-20T01:22:47;101109.00;;;10.00
34807;BMP180;18310;55.586;12.286;2022-11-20T01:25:51;101107.00;;;10.00
34807;BMP180;18310;55.586;12.286;2022-11-20T01:28:58;101106.00;;;10.10
34807;BMP180;18310;55.586;12.286;2022-11-20T01:32:01;101099.00;;;10.10
34807;BMP180;18310;55.586;12.286;2022-11-20T01:35:06;101103.00;;;10.10
34807;BMP180;18310;55.586;12.286;2022-11-20T01:38:11;101106.00;;;10.10
34807;BMP180;18310;55.586;12.286;2022-11-20T01:41:15;101116.00;;;10.20
34807;BMP180;18310;55.586;12.286;2022-11-20T01:44:54;101107.00;;;10.20
34807;BMP180;18310;55.586;12.286;2022-11-20T01:47:57;101119.00;;;10.20
34807;BMP180;18310;55.586;12.286;2022-11-20T01:51:02;101118.00;;;10.10
34807;BMP180;18310;55.586;12.286;2022-11-20T01:54:11;101119.00;;;10.10
34807;BMP180;18310;55.586;12.286;2022-11-20T01:57:17;101118.00;;;10.20
34807;BMP180;18310;55.586;12.286;2022-11-20T02:00:23;101117.00;;;10.20
34807;BMP180;18310;55.586;12.286;2022-11-20T02:03:27;101128.00;;;10.20
34807;BMP180;18310;55.586;12.286;2022-11-20T02:06:37;101118.00;;;10.20
34807;BMP180;18310;55.586;12.286;2022-11-20T02:09:43;101119.00;;;10.20
34807;BMP180;18310;55.586;12.286;2022-11-20T02:12:47;101112.00;;;10.20
34807;BMP180;18310;55.586;12.286;2022-11-20T02:16:18;101114.00;;;10.20
34807;BMP180;18310;55.586;12.286;2022-11-20T02:19:27;101103.00;;;10.10
34807;BMP180;18310;55.586;12.286;2022-11-20T02:22:36;101110.00;;;10.10
34807;BMP180;18310;55.586;12.286;2022-11-20T02:25:45;101104.00;;;10.10
34807;BMP180;18310;55.586;12.286;2022-11-20T02:28:51;101102.00;;;10.00
34807;BMP180;18310;55.586;12.286;2022-11-20T02:31:56;101094.00;;;9.90
34807;BMP180;18310;55.586;12.286;2022-11-20T02:35:07;101100.00;;;9.90
34807;BMP180;18310;55.586;12.286;2022-11-20T02:38:13;101105.00;;;9.90
34807;BMP180;18310;55.586;12.286;2022-11-20T02:41:19;101110.00;;;9.80
34807;BMP180;18310;55.586;12.286;2022-11-20T02:44:23;101104.00;;;9.70
34807;BMP180;18310;55.586;12.286;2022-11-20T02:47:27;101093.00;;;9.70
34807;BMP180;18310;55.586;12.286;2022-11-20T02:50:30;101083.00;;;9.60
34807;BMP180;18310;55.586;12.286;2022-11-20T02:53:34;101093.00;;;9.50
34807;BMP180;18310;55.586;12.286;2022-11-20T02:56:39;101090.00;;;9.50
34807;BMP180;18310;55.586;12.286;2022-11-20T02:59:43;101083.00;;;9.50
34807;BMP180;18310;55.586;12.286;2022-11-20T03:02:46;101086.00;;;9.40
34807;BMP180;18310;55.586;12.286;2022-11-20T03:05:50;101092.00;;;9.40
34807;BMP180;18310;55.586;12.286;2022-11-20T03:08:53;101080.00;;;9.40
34807;BMP180;18310;55.586;12.286;2022-11-20T03:11:58;101081.00;;;9.30
34807;BMP180;18310;55.586;12.286;2022-11-20T03:15:03;101101.00;;;9.30
34807;BMP180;18310;55.586;12.286;2022-11-20T03:18:07;101090.00;;;9.30
34807;BMP180;18310;55.586;12.286;2022-11-20T03:21:13;101093.00;;;9.30
34807;BMP180;18310;55.586;12.286;2022-11-20T03:24:17;101099.00;;;9.30
34807;BMP180;18310;55.586;12.286;2022-11-20T03:27:21;101100.00;;;9.30
34807;BMP180;18310;55.586;12.286;2022-11-20T03:30:27;101096.00;;;9.30
34807;BMP180;18310;55.586;12.286;2022-11-20T03:33:32;101087.00;;;9.30
34807;BMP180;18310;55.586;12.286;2022-11-20T03:36:38;101084.00;;;9.30
34807;BMP180;18310;55.586;12.286;2022-11-20T03:39:42;101087.00;;;9.30
34807;BMP180;18310;55.586;12.286;2022-11-20T03:42:48;101080.00;;;9.30
34807;BMP180;18310;55.586;12.286;2022-11-20T03:45:52;101080.00;;;9.30
34807;BMP180;18310;55.586;12.286;2022-11-20T03:48:56;101076.00;;;9.30
34807;BMP180;18310;55.586;12.286;2022-11-20T03:52:00;101078.00;;;9.30
34807;BMP180;18310;55.586;12.286;2022-11-20T03:55:05;101069.00;;;9.30
34807;BMP180;18310;55.586;12.286;2022-11-20T03:58:10;101075.00;;;9.30
34807;BMP180;18310;55.586;12.286;2022-11-20T04:01:17;101074.00;;;9.20
34807;BMP180;18310;55.586;12.286;2022-11-20T04:04:21;101078.00;;;9.10
34807;BMP180;18310;55.586;12.286;2022-11-20T04:07:25;101069.00;;;9.10
34807;BMP180;18310;55.586;12.286;2022-11-20T04:10:28;101060.00;;;9.00
34807;BMP180;18310;55.586;12.286;2022-11-20T04:13:33;101066.00;;;9.00
34807;BMP180;18310;55.586;12.286;2022-11-20T04:16:37;101061.00;;;9.10
34807;BMP180;18310;55.586;12.286;2022-11-20T04:19:40;101069.00;;;9.10
34807;BMP180;18310;55.586;12.286;2022-11-20T04:22:43;101060.00;;;9.10
34807;BMP180;18310;55.586;12.286;2022-11-20T04:25:47;101063.00;;;9.20
34807;BMP180;18310;55.586;12.286;2022-11-20T04:28:52;101056.00;;;9.10
34807;BMP180;18310;55.586;12.286;2022-11-20T04:31:55;101055.00;;;9.10
34807;BMP180;18310;55.586;12.286;2022-11-20T04:34:58;101068.00;;;9.10
34807;BMP180;18310;55.586;12.286;2022-11-20T04:38:02;101059.00;;;9.20
34807;BMP180;18310;55.586;12.286;2022-11-20T04:41:15;101063.00;;;9.30
34807;BMP180;18310;55.586;12.286;2022-11-20T04:44:20;101065.00;;;9.20
34807;BMP180;18310;55.586;12.286;2022-11-20T04:47:24;101052.00;;;9.10
34807;BMP180;18310;55.586;12.286;2022-11-20T04:50:28;101056.00;;;9.10
34807;BMP180;18310;55.586;12.286;2022-11-20T04:53:32;101056.00;;;9.00
34807;BMP180;18310;55.586;12.286;2022-11-20T04:56:35;101052.00;;;9.00
34807;BMP180;18310;55.586;12.286;2022-11-20T04:59:40;101053.00;;;9.00
34807;BMP180;18310;55.586;12.286;2022-11-20T05:02:44;101050.00;;;8.90
34807;BMP180;18310;55.586;12.286;2022-11-20T05:05:47;101058.00;;;8.90
34807;BMP180;18310;55.586;12.286;2022-11-20T05:08:51;101050.00;;;8.80
34807;BMP180;18310;55.586;12.286;2022-11-20T05:11:54;101044.00;;;8.70
34807;BMP180;18310;55.586;12.286;2022-11-20T05:14:59;101041.00;;;8.70
34807;BMP180;18310;55.586;12.286;2022-11-20T05:18:03;101048.00;;;8.70
34807;BMP180;18310;55.586;12.286;2022-11-20T05:21:08;101034.00;;;8.70
34807;BMP180;18310;55.586;12.286;2022-11-20T05:24:11;101041.00;;;8.70
34807;BMP180;18310;55.586;12.286;2022-11-20T05:27:15;101046.00;;;8.80
34807;BMP180;18310;55.586;12.286;2022-11-20T05:30:20;101042.00;;;8.80
34807;BMP180;18310;55.586;12.286;2022-11-20T05:33:24;101043.00;;;8.60
34807;BMP180;18310;55.586;12.286;2022-11-20T05:36:27;101037.00;;;8.50
34807;BMP180;18310;55.586;12.286;2022-11-20T05:39:30;101036.00;;;8.50
34807;BMP180;18310;55.586;12.286;2022-11-20T05:42:34;101029.00;;;8.50
34807;BMP180;18310;55.586;12.286;2022-11-20T05:45:39;101023.00;;;8.50
34807;BMP180;18310;55.586;12.286;2022-11-20T05:48:45;101021.00;;;8.40
34807;BMP180;18310;55.586;12.286;2022-11-20T05:51:49;101026.00;;;8.40
34807;BMP180;18310;55.586;12.286;2022-11-20T05:54:52;101035.00;;;8.40
34807;BMP180;18310;55.586;12.286;2022-11-20T05:57:55;101031.00;;;8.40
34807;BMP180;18310;55.586;12.286;2022-11-20T06:01:06;101021.00;;;8.40
34807;BMP180;18310;55.586;12.286;2022-11-20T06:04:10;101018.00;;;8.40
34807;BMP180;18310;55.586;12.286;2022-11-20T06:07:14;101030.00;;;8.40
34807;BMP180;18310;55.586;12.286;2022-11-20T06:10:17;101027.00;;;8.40
34807;BMP180;18310;55.586;12.286;2022-11-20T06:13:21;101016.00;;;8.40
34807;BMP180;18310;55.586;12.286;2022-11-20T06:16:26;101027.00;;;8.40
34807;BMP180;18310;55.586;12.286;2022-11-20T06:19:30;101028.00;;;8.50
34807;BMP180;18310;55.586;12.286;2022-11-20T06:22:33;101016.00;;;8.50
34807;BMP180;18310;55.586;12.286;2022-11-20T06:25:38;101019.00;;;8.50
34807;BMP180;18310;55.586;12.286;2022-11-20T06:28:42;101018.00;;;8.40
34807;BMP180;18310;55.586;12.286;2022-11-20T06:31:47;101016.00;;;8.40
34807;BMP180;18310;55.586;12.286;2022-11-20T06:34:51;101027.00;;;8.40
34807;BMP180;18310;55.586;12.286;2022-11-20T06:37:55;101020.00;;;8.40
34807;BMP180;18310;55.586;12.286;2022-11-20T06:40:59;101021.00;;;8.40
34807;BMP180;18310;55.586;12.286;2022-11-20T06:44:04;101022.00;;;8.30
34807;BMP180;18310;55.586;12.286;2022-11-20T06:47:10;101019.00;;;8.30
34807;BMP180;18310;55.586;12.286;2022-11-20T06:50:13;101021.00;;;8.30
34807;BMP180;18310;55.586;12.286;2022-11-20T06:53:17;101014.00;;;8.30
34807;BMP180;18310;55.586;12.286;2022-11-20T06:56:21;101012.00;;;8.20
34807;BMP180;18310;55.586;12.286;2022-11-20T06:59:25;101012.00;;;8.10
34807;BMP180;18310;55.586;12.286;2022-11-20T07:02:30;101012.00;;;8.10
34807;BMP180;18310;55.586;12.286;2022-11-20T07:05:35;101000.00;;;8.10
34807;BMP180;18310;55.586;12.286;2022-11-20T07:08:40;101001.00;;;8.10
34807;BMP180;18310;55.586;12.286;2022-11-20T07:11:43;101003.00;;;8.10
34807;BMP180;18310;55.586;12.286;2022-11-20T07:14:47;100999.00;;;8.10
34807;BMP180;18310;55.586;12.286;2022-11-20T07:17:52;100998.00;;;8.10
34807;BMP180;18310;55.586;12.286;2022-11-20T07:20:56;101006.00;;;8.00
34807;BMP180;18310;55.586;12.286;2022-11-20T07:24:03;101010.00;;;8.00
34807;BMP180;18310;55.586;12.286;2022-11-20T07:27:08;100994.00;;;8.10
34807;BMP180;18310;55.586;12.286;2022-11-20T07:30:13;101006.00;;;8.10
34807;BMP180;18310;55.586;12.286;2022-11-20T07:33:18;100996.00;;;8.10
34807;BMP180;18310;55.586;12.286;2022-11-20T07:36:22;100998.00;;;8.10
34807;BMP180;18310;55.586;12.286;2022-11-20T07:39:25;100988.00;;;8.20
34807;BMP180;18310;55.586;12.286;2022-11-20T07:42:29;100998.00;;;8.20
34807;BMP180;18310;55.586;12.286;2022-11-20T07:45:33;100996.00;;;8.30
34807;BMP180;18310;55.586;12.286;2022-11-20T07:48:38;100986.00;;;8.30
34807;BMP180;18310;55.586;12.286;2022-11-20T07:51:42;100990.00;;;8.40
34807;BMP180;18310;55.586;12.286;2022-11-20T07:54:45;100999.00;;;8.50
34807;BMP180;18310;55.586;12.286;2022-11-20T07:57:55;100994.00;;;8.50
34807;BMP180;18310;55.586;12.286;2022-11-20T08:01:03;100993.00;;;8.60
34807;BMP180;18310;55.586;12.286;2022-11-20T08:04:09;101006.00;;;8.60
34807;BMP180;18310;55.586;12.286;2022-11-20T08:07:13;100989.00;;;8.70
34807;BMP180;18310;55.586;12.286;2022-11-20T08:10:24;100993.00;;;8.70
34807;BMP180;18310;55.586;12.286;2022-11-20T08:13:29;100989.00;;;8.80
34807;BMP180;18310;55.586;12.286;2022-11-20T08:16:51;100983.00;;;8.90
34807;BMP180;18310;55.586;12.286;2022-11-20T08:19:57;100992.00;;;8.90
34807;BMP180;18310;55.586;12.286;2022-11-20T08:23:07;100992.00;;;9.00
34807;BMP180;18310;55.586;12.286;2022-11-20T08:26:11;100992.00;;;9.00
34807;BMP180;18310;55.586;12.286;2022-11-20T08:29:14;100994.00;;;9.10
34807;BMP180;18310;55.586;12.286;2022-11-20T08:32:18;100996.00;;;9.30
34807;BMP180;18310;55.586;12.286;2022-11-20T08:35:23;100995.00;;;9.30
34807;BMP180;18310;55.586;12.286;2022-11-20T08:38:26;100997.00;;;9.50
34807;BMP180;18310;55.586;12.286;2022-11-20T08:41:30;100997.00;;;9.40
34807;BMP180;18310;55.586;12.286;2022-11-20T08:44:35;100991.00;;;9.50
34807;BMP180;18310;55.586;12.286;2022-11-20T08:47:39;100990.00;;;9.60
34807;BMP180;18310;55.586;12.286;2022-11-20T08:50:44;100996.00;;;9.70
34807;BMP180;18310;55.586;12.286;2022-11-20T08:53:47;100992.00;;;9.70
34807;BMP180;18310;55.586;12.286;2022-11-20T08:56:51;100994.00;;;9.70
34807;BMP180;18310;55.586;12.286;2022-11-20T08:59:54;100989.00;;;9.80
34807;BMP180;18310;55.586;12.286;2022-11-20T09:03:08;100999.00;;;9.70
34807;BMP180;18310;55.586;12.286;2022-11-20T09:06:15;100985.00;;;9.70
34807;BMP180;18310;55.586;12.286;2022-11-20T09:09:19;100995.00;;;9.60
34807;BMP180;18310;55.586;12.286;2022-11-20T09:12:23;100990.00;;;9.70
34807;BMP180;18310;55.586;12.286;2022-11-20T09:15:26;100991.00;;;9.70
34807;BMP180;18310;55.586;12.286;2022-11-20T09:18:30;100980.00;;;9.70
34807;BMP180;18310;55.586;12.286;2022-11-20T09:21:36;100986.00;;;9.70
34807;BMP180;18310;55.586;12.286;2022-11-20T09:24:40;100984.00;;;9.70
34807;BMP180;18310;55.586;12.286;2022-11-20T09:27:44;100987.00;;;9.80
34807;BMP180;18310;55.586;12.286;2022-11-20T09:30:48;100984.00;;;9.80
34807;BMP180;18310;55.586;12.286;2022-11-20T09:33:52;100990.00;;;9.80
34807;BMP180;18310;55.586;12.286;2022-11-20T09:36:58;100981.00;;;9.80
34807;BMP180;18310;55.586;12.286;2022-11-20T09:40:20;100985.00;;;9.80
34807;BMP180;18310;55.586;12.286;2022-11-20T09:43:40;100980.00;;;9.80
34807;BMP180;18310;55.586;12.286;2022-11-20T09:46:58;100985.00;;;9.80
34807;BMP180;18310;55.586;12.286;2022-11-20T09:50:23;100971.00;;;9.80
34807;BMP180;18310;55.586;12.286;2022-11-20T09:53:44;100972.00;;;9.80
34807;BMP180;18310;55.586;12.286;2022-11-20T09:56:55;100978.00;;;9.80
34807;BMP180;18310;55.586;12.286;2022-11-20T10:00:03;100978.00;;;9.80
34807;BMP180;18310;55.586;12.286;2022-11-20T10:03:17;100973.00;;;9.90
34807;BMP180;18310;55.586;12.286;2022-11-20T10:06:31;100964.00;;;9.90
34807;BMP180;18310;55.586;12.286;2022-11-20T10:09:40;100974.00;;;9.90
34807;BMP180;18310;55.586;12.286;2022-11-20T10:13:05;100966.00;;;10.00
34807;BMP180;18310;55.586;12.286;2022-11-20T10:16:26;100972.00;;;10.10
34807;BMP180;18310;55.586;12.286;2022-11-20T10:19:56;100967.00;;;10.10
34807;BMP180;18310;55.586;12.286;2022-11-20T10:23:24;100958.00;;;10.10
34807;BMP180;18310;55.586;12.286;2022-11-20T10:26:42;100960.00;;;10.20
34807;BMP180;18310;55.586;12.286;2022-11-20T10:30:02;100963.00;;;10.30
34807;BMP180;18310;55.586;12.286;2022-11-20T10:33:16;100957.00;;;10.10
34807;BMP180;18310;55.586;12.286;2022-11-20T10:36:26;100945.00;;;10.00
34807;BMP180;18310;55.586;12.286;2022-11-20T10:39:38;100946.00;;;9.90
34807;BMP180;18310;55.586;12.286;2022-11-20T10:42:46;100952.00;;;9.90
34807;BMP180;18310;55.586;12.286;2022-11-20T10:45:58;100949.00;;;10.00
34807;BMP180;18310;55.586;12.286;2022-11-20T10:49:14;100947.00;;;10.00
34807;BMP180;18310;55.586;12.286;2022-11-20T10:52:27;100961.00;;;10.10
34807;BMP180;18310;55.586;12.286;2022-11-20T10:55:42;100957.00;;;10.10
34807;BMP180;18310;55.586;12.286;2022-11-20T10:59:15;100943.00;;;10.20
34807;BMP180;18310;55.586;12.286;2022-11-20T11:02:31;100954.00;;;10.20
34807;BMP180;18310;55.586;12.286;2022-11-20T11:05:40;100951.00;;;10.20
34807;BMP180;18310;55.586;12.286;2022-11-20T11:08:48;100933.00;;;10.20
34807;BMP180;18310;55.586;12.286;2022-11-20T11:11:54;100927.00;;;10.20
34807;BMP180;18310;55.586;12.286;2022-11-20T11:14:58;100920.00;;;10.30
34807;BMP180;18310;55.586;12.286;2022-11-20T11:18:02;100918.00;;;10.30
34807;BMP180;18310;55.586;12.286;2022-11-20T11:21:05;100916.00;;;10.30
34807;BMP180;18310;55.586;12.286;2022-11-20T11:24:21;100910.00;;;10.30
34807;BMP180;18310;55.586;12.286;2022-11-20T11:27:46;100906.00;;;10.40
34807;BMP180;18310;55.586;12.286;2022-11-20T11:30:52;100904.00;;;10.40
34807;BMP180;18310;55.586;12.286;2022-11-20T11:34:05;100904.00;;;10.50
34807;BMP180;18310;55.586;12.286;2022-11-20T11:37:17;100906.00;;;10.50
34807;BMP180;18310;55.586;12.286;2022-11-20T11:40:22;100907.00;;;10.50
34807;BMP180;18310;55.586;12.286;2022-11-20T11:43:32;100898.00;;;10.60
34807;BMP180;18310;55.586;12.286;2022-11-20T11:46:57;100901.00;;;10.60
34807;BMP180;18310;55.586;12.286;2022-11-20T11:50:18;100899.00;;;10.60
34807;BMP180;18310;55.586;12.286;2022-11-20T11:53:23;100895.00;;;10.70
34807;BMP180;18310;55.586;12.286;2022-11-20T11:56:28;100893.00;;;10.70
34807;BMP180;18310;55.586;12.286;2022-11-20T11:59:47;100888.00;;;10.70
34807;BMP180;18310;55.586;12.286;2022-11-20T12:03:06;100896.00;;;10.70
34807;BMP180;18310;55.586;12.286;2022-11-20T12:06:15;100898.00;;;10.60
34807;BMP180;18310;55.586;12.286;2022-11-20T12:09:24;100891.00;;;10.60
34807;BMP180;18310;55.586;12.286;2022-11-20T12:12:36;100900.00;;;10.50
34807;BMP180;18310;55.586;12.286;2022-11-20T12:15:46;100888.00;;;10.50
34807;BMP180;18310;55.586;12.286;2022-11-20T12:18:53;100882.00;;;10.50
34807;BMP180;18310;55.586;12.286;2022-11-20T12:22:02;100880.00;;;10.50
34807;BMP180;18310;55.586;12.286;2022-11-20T12:25:14;100878.00;;;10.50
34807;BMP180;18310;55.586;12.286;2022-11-20T12:28:44;100864.00;;;10.50
34807;BMP180;18310;55.586;12.286;2022-11-20T12:32:26;100858.00;;;10.50
34807;BMP180;18310;55.586;12.286;2022-11-20T12:35:57;100839.00;;;10.50
34807;BMP180;18310;55.586;12.286;2022-11-20T12:39:30;100854.00;;;10.50
34807;BMP180;18310;55.586;12.286;2022-11-20T12:42:52;100838.00;;;10.50
34807;BMP180;18310;55.586;12.286;2022-11-20T12:46:27;100847.00;;;10.60
34807;BMP180;18310;55.586;12.286;2022-11-20T12:49:44;100847.00;;;10.60
34807;BMP180;18310;55.586;12.286;2022-11-20T12:52:57;100853.00;;;10.60
34807;BMP180;18310;55.586;12.286;2022-11-20T12:56:14;100847.00;;;10.60
34807;BMP180;18310;55.586;12.286;2022-11-20T12:59:38;100843.00;;;10.60
34807;BMP180;18310;55.586;12.286;2022-11-20T13:03:31;100835.00;;;10.60
34807;BMP180;18310;55.586;12.286;2022-11-20T13:06:41;100839.00;;;10.60
34807;BMP180;18310;55.586;12.286;2022-11-20T13:09:49;100829.00;;;10.60
34807;BMP180;18310;55.586;12.286;2022-11-20T13:12:59;100828.00;;;10.60
34807;BMP180;18310;55.586;12.286;2022-11-20T13:16:09;100825.00;;;10.60
34807;BMP180;18310;55.586;12.286;2022-11-20T13:19:17;100834.00;;;10.60
34807;BMP180;18310;55.586;12.286;2022-11-20T13:22:25;100825.00;;;10.60
34807;BMP180;18310;55.586;12.286;2022-11-20T13:25:34;100825.00;;;10.60
34807;BMP180;18310;55.586;12.286;2022-11-20T13:28:40;100817.00;;;10.50
34807;BMP180;18310;55.586;12.286;2022-11-20T13:31:46;100815.00;;;10.50
34807;BMP180;18310;55.586;12.286;2022-11-20T13:34:55;100812.00;;;10.60
34807;BMP180;18310;55.586;12.286;2022-11-20T13:38:08;100816.00;;;10.50
34807;BMP180;18310;55.586;12.286;2022-11-20T13:41:25;100803.00;;;10.50
34807;BMP180;18310;55.586;12.286;2022-11-20T13:44:42;100804.00;;;10.50
34807;BMP180;18310;55.586;12.286;2022-11-20T13:47:48;100800.00;;;10.60
34807;BMP180;18310;55.586;12.286;2022-11-20T13:51:13;100797.00;;;10.60
34807;BMP180;18310;55.586;12.286;2022-11-20T13:54:48;100808.00;;;10.60
34807;BMP180;18310;55.586;12.286;2022-11-20T13:58:28;100804.00;;;10.60
34807;BMP180;18310;55.586;12.286;2022-11-20T14:01:34;100792.00;;;10.50
34807;BMP180;18310;55.586;12.286;2022-11-20T14:04:45;100792.00;;;10.60
34807;BMP180;18310;55.586;12.286;2022-11-20T14:07:53;100794.00;;;10.60
34807;BMP180;18310;55.586;12.286;2022-11-20T14:11:05;100770.00;;;10.60
34807;BMP180;18310;55.586;12.286;2022-11-20T14:14:18;100776.00;;;10.60
34807;BMP180;18310;55.586;12.286;2022-11-20T14:17:30;100774.00;;;10.60
34807;BMP180;18310;55.586;12.286;2022-11-20T14:20:34;100770.00;;;10.60
34807;BMP180;18310;55.586;12.286;2022-11-20T14:23:37;100776.00;;;10.60
34807;BMP180;18310;55.586;12.286;2022-11-20T14:26:43;100772.00;;;10.50
34807;BMP180;18310;55.586;12.286;2022-11-20T14:29:50;100768.00;;;10.50
34807;BMP180;18310;55.586;12.286;2022-11-20T14:32:59;100768.00;;;10.40
34807;BMP180;18310;55.586;12.286;2022-11-20T14:36:17;100764.00;;;10.40
34807;BMP180;18310;55.586;12.286;2022-11-20T14:39:30;100764.00;;;10.30
34807;BMP180;18310;55.586;12.286;2022-11-20T14:42:55;100764.00;;;10.30
34807;BMP180;18310;55.586;12.286;2022-11-20T14:46:07;100759.00;;;10.20
34807;BMP180;18310;55.586;12.286;2022-11-20T14:49:50;100763.00;;;10.20
34807;BMP180;18310;55.586;12.286;2022-11-20T14:53:24;100768.00;;;10.10
34807;BMP180;18310;55.586;12.286;2022-11-20T14:56:31;100759.00;;;10.00
34807;BMP180;18310;55.586;12.286;2022-11-20T14:59:36;100758.00;;;10.20
34807;BMP180;18310;55.586;12.286;2022-11-20T15:02:55;100745.00;;;10.00
34807;BMP180;18310;55.586;12.286;2022-11-20T15:06:05;100753.00;;;9.90
34807;BMP180;18310;55.586;12.286;2022-11-20T15:09:16;100737.00;;;9.90
34807;BMP180;18310;55.586;12.286;2022-11-20T15:12:22;100739.00;;;9.80
34807;BMP180;18310;55.586;12.286;2022-11-20T15:15:39;100731.00;;;9.80
34807;BMP180;18310;55.586;12.286;2022-11-20T15:18:49;100728.00;;;9.70
34807;BMP180;18310;55.586;12.286;2022-11-20T15:21:56;100732.00;;;9.70
34807;BMP180;18310;55.586;12.286;2022-11-20T15:25:14;100735.00;;;9.60
34807;BMP180;18310;55.586;12.286;2022-11-20T15:28:30;100727.00;;;9.50
34807;BMP180;18310;55.586;12.286;2022-11-20T15:31:41;100728.00;;;9.40
34807;BMP180;18310;55.586;12.286;2022-11-20T15:34:51;100727.00;;;9.30
34807;BMP180;18310;55.586;12.286;2022-11-20T15:38:25;100730.00;;;9.30
34807;BMP180;18310;55.586;12.286;2022-11-20T15:41:53;100721.00;;;9.10
34807;BMP180;18310;55.586;12.286;2022-11-20T15:45:01;100725.00;;;9.10
34807;BMP180;18310;55.586;12.286;2022-11-20T15:48:16;100727.00;;;9.00
34807;BMP180;18310;55.586;12.286;2022-11-20T15:51:30;100718.00;;;9.00
34807;BMP180;18310;55.586;12.286;2022-11-20T15:54:36;100711.00;;;8.90
34807;BMP180;18310;55.586;12.286;2022-11-20T15:58:23;100717.00;;;8.80
34807;BMP180;18310;55.586;12.286;2022-11-20T16:02:14;100710.00;;;8.80
34807;BMP180;18310;55.586;12.286;2022-11-20T16:05:49;100711.00;;;8.70
34807;BMP180;18310;55.586;12.286;2022-11-20T16:09:29;100697.00;;;8.70
34807;BMP180;18310;55.586;12.286;2022-11-20T16:12:50;100688.00;;;8.70
34807;BMP180;18310;55.586;12.286;2022-11-20T16:16:44;100689.00;;;8.50
34807;BMP180;18310;55.586;12.286;2022-11-20T16:20:09;100688.00;;;8.50
34807;BMP180;18310;55.586;12.286;2022-11-20T16:23:17;100688.00;;;8.40
34807;BMP180;18310;55.586;12.286;2022-11-20T16:26:28;100696.00;;;8.40
34807;BMP180;18310;55.586;12.286;2022-11-20T16:29:33;100689.00;;;8.40
34807;BMP180;18310;55.586;12.286;2022-11-20T16:32:39;100684.00;;;8.30
34807;BMP180;18310;55.586;12.286;2022-11-20T16:35:46;100680.00;;;8.20
34807;BMP180;18310;55.586;12.286;2022-11-20T16:38:54;100686.00;;;8.20
34807;BMP180;18310;55.586;12.286;2022-11-20T16:42:05;100680.00;;;8.10
34807;BMP180;18310;55.586;12.286;2022-11-20T16:45:14;100678.00;;;8.10
34807;BMP180;18310;55.586;12.286;2022-11-20T16:48:27;100676.00;;;8.00
34807;BMP180;18310;55.586;12.286;2022-11-20T16:51:34;100672.00;;;8.00
34807;BMP180;18310;55.586;12.286;2022-11-20T16:54:43;100669.00;;;8.10
34807;BMP180;18310;55.586;12.286;2022-11-20T16:57:51;100672.00;;;8.00
34807;BMP180;18310;55.586;12.286;2022-11-20T17:00:56;100666.00;;;8.00
34807;BMP180;18310;55.586;12.286;2022-11-20T17:04:06;100662.00;;;8.00
34807;BMP180;18310;55.586;12.286;2022-11-20T17:07:11;100655.00;;;8.00
34807;BMP180;18310;55.586;12.286;2022-11-20T17:10:19;100658.00;;;8.00
34807;BMP180;18310;55.586;12.286;2022-11-20T17:13:42;100644.00;;;7.90
34807;BMP180;18310;55.586;12.286;2022-11-20T17:16:45;100652.00;;;7.90
34807;BMP180;18310;55.586;12.286;2022-11-20T17:19:49;100640.00;;;7.90
34807;BMP180;18310;55.586;12.286;2022-11-20T17:22:53;100639.00;;;7.80
34807;BMP180;18310;55.586;12.286;2022-11-20T17:26:02;100645.00;;;7.80
34807;BMP180;18310;55.586;12.286;2022-11-20T17:29:11;100636.00;;;7.70
34807;BMP180;18310;55.586;12.286;2022-11-20T17:32:15;100630.00;;;7.70
34807;BMP180;18310;55.586;12.286;2022-11-20T17:35:18;100625.00;;;7.60
34807;BMP180;18310;55.586;12.286;2022-11-20T17:38:22;100621.00;;;7.50
34807;BMP180;18310;55.586;12.286;2022-11-20T17:41:28;100625.00;;;7.50
34807;BMP180;18310;55.586;12.286;2022-11-20T17:44:34;100623.00;;;7.40
34807;BMP180;18310;55.586;12.286;2022-11-20T17:47:38;100614.00;;;7.40
34807;BMP180;18310;55.586;12.286;2022-11-20T17:50:43;100611.00;;;7.40
34807;BMP180;18310;55.586;12.286;2022-11-20T17:53:50;100613.00;;;7.40